createdAt,value
2023-03-23T15:58:15.949Z,97514.72
2023-03-23T16:00:47.146Z,97514.72
2023-03-23T16:03:20.901Z,97514.72
2023-03-23T16:05:48.713Z,97516.69
2023-03-23T16:08:16.642Z,97523.38
2023-03-23T16:10:44.882Z,97521.00
2023-03-23T16:13:12.948Z,97524.16
2023-03-23T16:15:40.712Z,97527.69
2023-03-23T16:18:17.007Z,97521.78
2023-03-23T16:20:44.882Z,97516.69
2023-03-23T16:23:12.653Z,97524.53
2023-03-23T16:25:40.599Z,97528.88
2023-03-23T16:28:12.335Z,97527.31
2023-03-23T16:30:43.611Z,97533.63
2023-03-23T16:33:12.749Z,97529.69
2023-03-23T16:35:40.957Z,97532.41
2023-03-23T16:38:09.397Z,97535.16
2023-03-23T16:40:37.576Z,97533.59
2023-03-23T16:43:08.359Z,97534.38
2023-03-23T16:45:43.255Z,97550.09
2023-03-23T16:48:14.779Z,97537.91
2023-03-23T16:50:43.603Z,97546.97
2023-03-23T16:53:11.774Z,97547.75
2023-03-23T16:55:40.600Z,97543.03
2023-03-23T16:58:17.011Z,97537.53
2023-03-23T17:00:48.015Z,97547.75
2023-03-23T17:03:17.362Z,97537.53
2023-03-23T17:05:46.235Z,97526.94
2023-03-23T17:08:14.285Z,97517.09
2023-03-23T17:10:43.689Z,97526.53
2023-03-23T17:13:11.626Z,97523.38
2023-03-23T17:15:39.926Z,97524.19
2023-03-23T17:18:08.135Z,97512.41
2023-03-23T17:20:37.343Z,97506.13
2023-03-23T17:23:05.883Z,97510.06
2023-03-23T17:25:33.738Z,97505.34
2023-03-23T17:28:05.719Z,97508.84
2023-03-23T17:30:34.179Z,97508.47
2023-03-23T17:33:01.946Z,97507.69
2023-03-23T17:35:29.807Z,97503.78
2023-03-23T17:37:59.081Z,97502.97
2023-03-23T17:40:27.292Z,97490.00
2023-03-23T17:42:55.885Z,97499.03
2023-03-23T17:45:24.357Z,97494.72
2023-03-23T17:47:52.867Z,97497.47
2023-03-23T17:50:21.040Z,97493.16
2023-03-23T17:52:49.942Z,97497.88
2023-03-23T17:55:19.193Z,97494.34
2023-03-23T17:57:46.933Z,97499.81
2023-03-23T18:00:15.788Z,97491.19
2023-03-23T18:02:43.668Z,97491.97
2023-03-23T18:05:11.848Z,97490.38
2023-03-23T18:07:39.655Z,97483.72
2023-03-23T18:10:11.881Z,97484.09
2023-03-23T18:12:42.944Z,97485.31
2023-03-23T18:15:11.579Z,97488.84
2023-03-23T18:17:39.556Z,97485.28
2023-03-23T18:20:08.940Z,97482.53
2023-03-23T18:22:36.810Z,97488.06
2023-03-23T18:25:05.215Z,97484.91
2023-03-23T18:27:33.166Z,97481.38
2023-03-23T18:30:02.713Z,97486.50
2023-03-23T18:32:30.480Z,97481.75
2023-03-23T18:34:58.382Z,97480.19
2023-03-23T18:37:26.667Z,97484.13
2023-03-23T18:39:54.571Z,97477.06
2023-03-23T18:42:22.480Z,97489.63
2023-03-23T18:44:50.187Z,97483.34
2023-03-23T18:47:19.259Z,97482.94
2023-03-23T18:49:51.084Z,97484.13
2023-03-23T18:52:19.107Z,97484.91
2023-03-23T18:54:46.899Z,97490.41
2023-03-23T18:57:15.191Z,97495.91
2023-03-23T18:59:43.014Z,97497.44
2023-03-23T19:02:11.779Z,97491.94
2023-03-23T19:04:41.076Z,97490.38
2023-03-23T19:07:08.773Z,97495.09
2023-03-23T19:09:36.886Z,97494.69
2023-03-23T19:12:04.726Z,97492.72
2023-03-23T19:14:32.549Z,97495.47
2023-03-23T19:17:00.383Z,97494.31
2023-03-23T19:19:28.352Z,97491.94
2023-03-23T19:21:57.356Z,97491.16
2023-03-23T19:24:26.277Z,97490.38
2023-03-23T19:26:54.053Z,97493.50
2023-03-23T19:31:52.588Z,97490.38
2023-03-23T19:34:21.740Z,97487.22
2023-03-23T19:36:55.044Z,97485.69
2023-03-23T19:39:28.560Z,97475.47
2023-03-23T19:41:56.767Z,97476.22
2023-03-23T19:44:25.466Z,97487.22
2023-03-23T19:46:54.518Z,97484.09
2023-03-23T19:49:22.503Z,97480.53
2023-03-23T19:51:50.426Z,97483.28
2023-03-23T19:54:18.110Z,97477.78
2023-03-23T19:56:47.863Z,97487.94
2023-03-23T19:59:16.639Z,97485.19
2023-03-23T20:01:45.352Z,97488.75
2023-03-23T20:04:13.380Z,97489.16
2023-03-23T20:06:41.292Z,97486.78
2023-03-23T20:09:09.358Z,97483.28
2023-03-23T20:11:37.409Z,97481.72
2023-03-23T20:14:07.025Z,97482.50
2023-03-23T20:16:34.874Z,97484.47
2023-03-23T20:19:04.914Z,97475.47
2023-03-23T20:21:33.704Z,97475.44
2023-03-23T20:24:01.621Z,97483.28
2023-03-23T20:26:32.179Z,97480.16
2023-03-23T20:29:00.602Z,97481.72
2023-03-23T20:31:33.132Z,97491.16
2023-03-23T20:34:08.428Z,97491.16
2023-03-23T20:36:40.505Z,97489.16
2023-03-23T20:39:12.122Z,97493.44
2023-03-23T20:41:40.573Z,97491.13
2023-03-23T20:44:13.936Z,97483.25
2023-03-23T20:46:43.488Z,97490.28
2023-03-23T20:49:11.433Z,97478.50
2023-03-23T20:51:42.953Z,97483.97
2023-03-23T20:54:10.952Z,97480.84
2023-03-23T20:56:40.546Z,97478.09
2023-03-23T20:59:08.413Z,97478.47
2023-03-23T21:01:37.034Z,97481.63
2023-03-23T21:04:08.154Z,97482.41
2023-03-23T21:06:37.228Z,97480.84
2023-03-23T21:09:06.186Z,97480.81
2023-03-23T21:11:35.286Z,97476.09
2023-03-23T21:14:03.864Z,97477.25
2023-03-23T21:16:32.025Z,97466.69
2023-03-23T21:19:00.299Z,97479.22
2023-03-23T21:21:29.933Z,97483.53
2023-03-23T21:23:57.988Z,97474.50
2023-03-23T21:26:28.508Z,97470.63
2023-03-23T21:28:59.999Z,97474.09
2023-03-23T21:31:30.727Z,97479.94
2023-03-23T21:33:58.982Z,97471.31
2023-03-23T21:36:27.996Z,97472.09
2023-03-23T21:38:57.971Z,97467.41
2023-03-23T21:41:27.020Z,97466.22
2023-03-23T21:43:54.990Z,97462.31
2023-03-23T21:46:24.440Z,97467.81
2023-03-23T21:48:52.773Z,97461.16
2023-03-23T21:51:24.417Z,97461.91
2023-03-23T21:53:54.116Z,97457.22
2023-03-23T21:56:28.261Z,97458.00
2023-03-23T21:58:56.573Z,97466.63
2023-03-23T22:01:25.333Z,97467.41
2023-03-23T22:03:53.211Z,97454.13
2023-03-23T22:06:26.687Z,97459.59
2023-03-23T22:08:55.326Z,97453.34
2023-03-23T22:11:28.213Z,97452.56
2023-03-23T22:13:58.219Z,97441.56
2023-03-23T22:16:27.178Z,97436.88
2023-03-23T22:18:56.968Z,97433.72
2023-03-23T22:21:27.769Z,97439.16
2023-03-23T22:23:57.876Z,97430.91
2023-03-23T22:26:28.452Z,97430.56
2023-03-23T22:28:56.421Z,97428.16
2023-03-23T22:31:26.673Z,97428.94
2023-03-23T22:33:56.629Z,97426.63
2023-03-23T22:36:26.427Z,97420.34
2023-03-23T22:38:55.037Z,97414.81
2023-03-23T22:41:25.191Z,97416.81
2023-03-23T22:43:54.766Z,97408.94
2023-03-23T22:46:22.967Z,97408.59
2023-03-23T22:48:50.981Z,97404.66
2023-03-23T22:51:19.914Z,97408.56
2023-03-23T22:53:48.364Z,97402.28
2023-03-23T22:56:16.687Z,97396.03
2023-03-23T22:58:44.793Z,97395.66
2023-03-23T23:01:16.345Z,97398.41
2023-03-23T23:03:44.418Z,97379.59
2023-03-23T23:06:13.542Z,97381.97
2023-03-23T23:08:42.820Z,97380.44
2023-03-23T23:11:13.655Z,97382.75
2023-03-23T23:13:41.944Z,97368.66
2023-03-23T23:16:11.420Z,97366.28
2023-03-23T23:18:41.343Z,97369.03
2023-03-23T23:21:11.705Z,97369.44
2023-03-23T23:23:40.198Z,97359.25
2023-03-23T23:26:08.597Z,97352.19
2023-03-23T23:28:37.332Z,97352.56
2023-03-23T23:31:06.329Z,97354.50
2023-03-23T23:33:34.482Z,97363.16
2023-03-23T23:36:04.063Z,97352.16
2023-03-23T23:38:31.984Z,97353.72
2023-03-23T23:40:59.941Z,97352.16
2023-03-23T23:43:27.852Z,97344.34
2023-03-23T23:45:55.783Z,97344.72
2023-03-23T23:48:23.785Z,97343.53
2023-03-23T23:50:51.890Z,97334.91
2023-03-23T23:53:22.933Z,97330.22
2023-03-23T23:55:51.062Z,97330.19
2023-03-23T23:58:19.326Z,97325.47
